Time;durP1;ratioP1;P1;durP2;ratioP2;P2;SDS_P1;SDS_P2;PMS_P1;PMS_P2;Temp;Humidity;BMP_temperature;BMP_pressure;BME280_temperature;BME280_humidity;BME280_pressure;Samples;Min_cycle;Max_cycle;Signal;HPM_P1;HPM_P2
2023/09/13 00:01:17;;;;;;;6.47;1.98;;;17.90;99.90;;;;;;5050658;28;20052;-78
2023/09/13 00:03:42;;;;;;;9.75;2.20;;;17.80;99.90;;;;;;5051237;28;20045;-78
2023/09/13 00:06:08;;;;;;;5.95;2.03;;;17.80;99.90;;;;;;5050985;28;20053;-78
2023/09/13 00:08:34;;;;;;;8.13;1.88;;;17.80;99.90;;;;;;5050430;28;20349;-78
2023/09/13 00:11:05;;;;;;;6.30;1.98;;;17.80;99.90;;;;;;5051191;28;20395;-78
2023/09/13 00:13:32;;;;;;;6.43;1.88;;;17.70;99.90;;;;;;5050133;28;20561;-78
2023/09/13 00:15:58;;;;;;;6.93;1.50;;;17.70;99.90;;;;;;5050127;28;20041;-78
2023/09/13 00:18:24;;;;;;;6.10;1.40;;;17.70;99.90;;;;;;5050467;28;20040;-78
2023/09/13 00:20:53;;;;;;;4.57;1.70;;;17.70;99.90;;;;;;5051142;28;20122;-78
2023/09/13 00:23:19;;;;;;;3.88;1.65;;;17.70;99.90;;;;;;5050236;28;20107;-79
2023/09/13 00:25:44;;;;;;;5.45;1.77;;;17.70;99.90;;;;;;5051378;28;20428;-78
2023/09/13 00:28:10;;;;;;;5.65;1.48;;;17.70;99.90;;;;;;5051958;28;20048;-78
2023/09/13 00:30:36;;;;;;;9.75;1.75;;;17.70;99.90;;;;;;5051637;28;20037;-78
2023/09/13 00:33:02;;;;;;;7.22;1.90;;;17.70;99.90;;;;;;5051891;28;20464;-78
2023/09/13 00:35:28;;;;;;;7.47;2.05;;;17.70;99.90;;;;;;5052451;28;20041;-78
2023/09/13 00:37:54;;;;;;;6.28;1.80;;;17.60;99.90;;;;;;5051023;28;20550;-78
2023/09/13 00:40:20;;;;;;;6.95;1.75;;;17.60;99.90;;;;;;5054433;28;20197;-78
2023/09/13 00:42:46;;;;;;;6.10;1.73;;;17.60;99.90;;;;;;5071992;28;20037;-78
2023/09/13 00:45:11;;;;;;;5.53;1.63;;;17.60;99.90;;;;;;5053370;28;20098;-78
2023/09/13 00:47:42;;;;;;;8.05;1.90;;;17.60;99.90;;;;;;5072426;28;20495;-78
2023/09/13 00:50:09;;;;;;;7.03;1.92;;;17.60;99.90;;;;;;5054089;28;20041;-78
2023/09/13 00:52:37;;;;;;;7.90;1.90;;;17.60;99.90;;;;;;5053578;28;20055;-78
2023/09/13 00:55:04;;;;;;;5.43;1.88;;;17.50;99.90;;;;;;5054118;28;20060;-77
2023/09/13 00:57:31;;;;;;;5.82;1.58;;;17.60;99.90;;;;;;5071215;28;20135;-79
2023/09/13 00:59:56;;;;;;;7.35;1.83;;;17.60;99.90;;;;;;5053997;28;20048;-78
2023/09/13 01:02:22;;;;;;;6.68;1.63;;;17.60;99.90;;;;;;5071881;28;20047;-78
2023/09/13 01:04:48;;;;;;;8.02;1.70;;;17.50;99.90;;;;;;5070764;28;20040;-78
2023/09/13 01:07:14;;;;;;;5.32;1.70;;;17.50;99.90;;;;;;5054063;28;20048;-78
2023/09/13 01:09:39;;;;;;;7.38;1.80;;;17.50;99.90;;;;;;5054053;28;20045;-78
2023/09/13 01:12:05;;;;;;;5.72;1.70;;;17.50;99.90;;;;;;5070785;28;20377;-78
2023/09/13 01:14:31;;;;;;;6.72;1.83;;;17.50;99.90;;;;;;5054074;28;20149;-78
2023/09/13 01:17:15;;;;;;;5.90;1.60;;;17.60;99.90;;;;;;5071513;28;20036;-77
2023/09/13 01:20:01;;;;;;;5.97;1.40;;;17.50;99.90;;;;;;5053479;28;20614;-78
2023/09/13 01:22:51;;;;;;;6.50;1.63;;;17.50;99.90;;;;;;5054175;28;20434;-78
2023/09/13 01:25:16;;;;;;;5.57;1.70;;;17.50;99.90;;;;;;5057101;28;20044;-78
2023/09/13 01:28:10;;;;;;;5.55;1.80;;;17.50;99.90;;;;;;5056937;28;20561;-78
2023/09/13 01:30:37;;;;;;;6.72;1.80;;;17.50;99.90;;;;;;5057651;28;20476;-78
2023/09/13 01:33:03;;;;;;;5.05;1.50;;;17.40;99.90;;;;;;5074367;28;20057;-77
2023/09/13 01:35:29;;;;;;;8.00;2.17;;;17.50;99.90;;;;;;5057339;28;20043;-78
2023/09/13 01:37:54;;;;;;;7.63;1.80;;;17.50;99.90;;;;;;5074744;28;20094;-78
2023/09/13 01:40:29;;;;;;;7.85;1.73;;;17.40;99.90;;;;;;5056575;28;20056;-77
2023/09/13 01:42:56;;;;;;;6.25;1.52;;;17.40;99.90;;;;;;5056973;28;20059;-78
2023/09/13 01:45:24;;;;;;;6.22;1.60;;;17.40;99.90;;;;;;5057089;28;20051;-77
2023/09/13 01:47:50;;;;;;;7.35;1.70;;;17.40;99.90;;;;;;5074116;28;20059;-76
2023/09/13 01:50:16;;;;;;;5.43;1.75;;;17.40;99.90;;;;;;5057307;28;20388;-76
2023/09/13 01:52:42;;;;;;;8.13;1.98;;;17.30;99.90;;;;;;5056870;28;20064;-76
2023/09/13 01:55:09;;;;;;;6.85;1.52;;;17.30;99.90;;;;;;5074084;28;20118;-76
2023/09/13 01:57:35;;;;;;;7.60;1.88;;;17.30;99.90;;;;;;5075058;28;20051;-76
2023/09/13 02:00:01;;;;;;;8.73;1.90;;;17.30;99.90;;;;;;5056435;28;20052;-76
2023/09/13 02:02:26;;;;;;;15.20;2.10;;;17.20;99.90;;;;;;5056122;28;20399;-75
2023/09/13 02:04:52;;;;;;;8.27;1.75;;;17.20;99.90;;;;;;5056478;28;20051;-76
2023/09/13 02:07:18;;;;;;;4.88;1.50;;;17.10;99.90;;;;;;5056927;28;20132;-76
2023/09/13 02:09:44;;;;;;;4.68;1.48;;;17.00;99.90;;;;;;5056286;28;20042;-76
2023/09/13 02:12:13;;;;;;;6.13;1.73;;;17.00;99.90;;;;;;5056325;28;20076;-75
2023/09/13 02:14:44;;;;;;;8.90;2.00;;;16.90;99.90;;;;;;5056714;28;20040;-75
2023/09/13 02:17:10;;;;;;;5.55;1.70;;;16.90;99.90;;;;;;5074225;28;20049;-75
2023/09/13 02:19:36;;;;;;;4.63;1.42;;;16.90;99.90;;;;;;5056507;28;20051;-75
2023/09/13 02:22:02;;;;;;;6.22;1.65;;;16.80;99.90;;;;;;5073273;28;20830;-75
2023/09/13 02:24:28;;;;;;;7.40;1.70;;;16.70;99.90;;;;;;5056720;28;20040;-75
2023/09/13 02:26:58;;;;;;;6.20;1.88;;;16.70;99.90;;;;;;5056085;28;20056;-75
2023/09/13 02:29:24;;;;;;;4.82;1.40;;;16.70;99.90;;;;;;5055725;28;20041;-75
2023/09/13 02:31:49;;;;;;;8.35;1.60;;;16.70;99.90;;;;;;5055877;28;20049;-75
2023/09/13 02:34:15;;;;;;;3.97;1.60;;;16.60;99.90;;;;;;5056330;28;20385;-75
2023/09/13 02:36:41;;;;;;;7.72;1.98;;;16.60;99.90;;;;;;5054680;28;20048;-75
2023/09/13 02:39:31;;;;;;;10.20;2.00;;;16.60;99.90;;;;;;5055367;28;20479;-75
2023/09/13 02:41:56;;;;;;;8.57;2.10;;;16.60;99.90;;;;;;5055960;28;20072;-75
2023/09/13 02:44:22;;;;;;;7.70;2.33;;;16.60;99.90;;;;;;5055618;28;20075;-75
2023/09/13 02:46:48;;;;;;;6.50;1.80;;;16.50;99.90;;;;;;5073727;28;20036;-75
2023/09/13 02:49:13;;;;;;;6.30;2.15;;;16.60;99.90;;;;;;5055271;28;20052;-75
2023/09/13 02:51:39;;;;;;;10.27;1.98;;;16.50;99.90;;;;;;5055292;28;20040;-75
2023/09/13 02:54:05;;;;;;;7.65;2.10;;;16.50;99.90;;;;;;5055395;28;20044;-75
2023/09/13 02:56:31;;;;;;;5.45;1.98;;;16.50;99.90;;;;;;5073677;28;20419;-75
2023/09/13 02:58:56;;;;;;;7.22;2.00;;;16.50;99.90;;;;;;5054958;28;20052;-75
2023/09/13 03:01:22;;;;;;;8.82;2.25;;;16.40;99.90;;;;;;5055756;28;20041;-76
2023/09/13 03:03:51;;;;;;;8.93;2.10;;;16.40;99.90;;;;;;5073529;28;20427;-76
2023/09/13 03:06:16;;;;;;;8.27;1.98;;;16.50;99.90;;;;;;5072679;28;20055;-76
2023/09/13 03:08:43;;;;;;;6.47;2.03;;;16.40;99.90;;;;;;5073371;28;20052;-76
2023/09/13 03:11:16;;;;;;;10.93;2.42;;;16.40;99.90;;;;;;5054619;28;20056;-76
2023/09/13 03:13:42;;;;;;;6.50;2.00;;;16.40;99.90;;;;;;5055178;28;20083;-76
2023/09/13 03:16:13;;;;;;;6.97;2.17;;;16.30;99.90;;;;;;5072909;28;20052;-76
2023/09/13 03:18:39;;;;;;;6.32;1.85;;;16.30;99.90;;;;;;5054902;28;20048;-76
2023/09/13 03:21:07;;;;;;;7.47;1.83;;;16.30;99.90;;;;;;5054880;28;20127;-76
2023/09/13 03:23:33;;;;;;;6.25;1.70;;;16.20;99.90;;;;;;5055014;28;20109;-76
2023/09/13 03:25:58;;;;;;;6.28;2.30;;;16.20;99.90;;;;;;5071431;28;20040;-76
2023/09/13 03:28:24;;;;;;;8.93;2.08;;;16.30;99.90;;;;;;5072473;28;20043;-75
2023/09/13 03:30:49;;;;;;;4.32;1.83;;;16.30;99.90;;;;;;5072625;28;20127;-75
2023/09/13 03:33:15;;;;;;;7.00;1.92;;;16.30;99.90;;;;;;5072166;28;20074;-76
2023/09/13 03:35:41;;;;;;;8.95;2.50;;;16.20;99.90;;;;;;5055299;28;20439;-75
2023/09/13 03:38:06;;;;;;;8.30;2.03;;;16.20;99.90;;;;;;5072354;28;20056;-75
2023/09/13 03:40:32;;;;;;;9.90;2.08;;;16.20;99.90;;;;;;5054145;28;20175;-75
2023/09/13 03:42:57;;;;;;;8.30;2.28;;;16.20;99.90;;;;;;5072251;28;20127;-75
2023/09/13 03:45:23;;;;;;;7.05;2.30;;;16.20;99.90;;;;;;5054739;28;20051;-77
2023/09/13 03:47:49;;;;;;;7.30;2.20;;;16.10;99.90;;;;;;5071329;28;20059;-75
2023/09/13 03:50:17;;;;;;;8.70;2.40;;;16.10;99.90;;;;;;5054655;28;20109;-74
2023/09/13 03:52:43;;;;;;;8.85;2.30;;;16.00;99.90;;;;;;5054439;28;20048;-75
2023/09/13 03:55:08;;;;;;;7.97;2.35;;;16.00;99.90;;;;;;5053255;28;20052;-75
2023/09/13 03:57:34;;;;;;;10.27;2.55;;;15.90;99.90;;;;;;5072672;28;20102;-75
2023/09/13 03:59:59;;;;;;;8.75;2.20;;;15.80;99.90;;;;;;5072201;28;20076;-75
2023/09/13 04:02:28;;;;;;;6.20;2.38;;;15.80;99.90;;;;;;5053966;28;20083;-75
2023/09/13 04:04:54;;;;;;;13.82;3.15;;;15.80;99.90;;;;;;5054442;28;20091;-74
2023/09/13 04:07:20;;;;;;;10.52;2.67;;;15.70;99.90;;;;;;5071903;28;20040;-74
2023/09/13 04:09:45;;;;;;;11.65;2.50;;;15.70;99.90;;;;;;5072380;28;20407;-74
2023/09/13 04:12:11;;;;;;;12.65;2.80;;;15.60;99.90;;;;;;5072386;28;20051;-74
2023/09/13 04:14:36;;;;;;;8.55;2.53;;;15.60;99.90;;;;;;5071284;28;20048;-74
2023/09/13 04:17:02;;;;;;;10.13;2.58;;;15.50;99.90;;;;;;5053984;28;20045;-73
2023/09/13 04:19:28;;;;;;;13.35;2.83;;;15.50;99.90;;;;;;5054589;28;20056;-73
2023/09/13 04:21:53;;;;;;;14.07;2.85;;;15.40;99.90;;;;;;5053412;28;20044;-73
2023/09/13 04:24:19;;;;;;;10.40;3.05;;;15.40;99.90;;;;;;5054310;28;20044;-73
2023/09/13 04:26:45;;;;;;;12.60;3.00;;;15.40;99.90;;;;;;5054541;28;20059;-73
2023/09/13 04:29:10;;;;;;;16.80;2.80;;;15.30;99.90;;;;;;5040762;28;20056;-73
2023/09/13 04:31:36;;;;;;;8.32;2.30;;;15.20;99.90;;;;;;5034196;28;20039;-72
2023/09/13 04:34:03;;;;;;;11.63;2.97;;;15.20;99.90;;;;;;5051664;28;20160;-73
2023/09/13 04:36:28;;;;;;;11.25;2.40;;;15.20;99.90;;;;;;5052575;28;20045;-73
2023/09/13 04:38:57;;;;;;;12.13;2.88;;;15.10;99.90;;;;;;5054181;28;20041;-74
2023/09/13 04:41:22;;;;;;;11.57;2.67;;;15.10;99.90;;;;;;5053996;28;20496;-74
2023/09/13 04:43:48;;;;;;;14.38;2.75;;;15.00;99.90;;;;;;5049689;28;20045;-74
2023/09/13 04:46:14;;;;;;;10.35;2.70;;;15.00;99.90;;;;;;5052408;28;20040;-74
2023/09/13 04:48:40;;;;;;;10.50;2.95;;;14.90;99.90;;;;;;5046168;28;20044;-74
2023/09/13 04:51:05;;;;;;;11.50;3.40;;;14.80;99.90;;;;;;5052994;28;20143;-74
2023/09/13 04:53:33;;;;;;;11.27;3.05;;;14.80;99.90;;;;;;5054057;28;20048;-74
2023/09/13 04:56:00;;;;;;;7.22;2.92;;;14.70;99.90;;;;;;5053635;28;20511;-73
2023/09/13 04:58:26;;;;;;;8.80;3.15;;;14.60;99.90;;;;;;5053514;28;20200;-70
2023/09/13 05:00:52;;;;;;;10.32;2.92;;;14.60;99.90;;;;;;5057567;28;20503;-72
2023/09/13 05:03:18;;;;;;;9.27;3.20;;;14.50;99.90;;;;;;5058038;28;20488;-72
2023/09/13 05:05:44;;;;;;;9.60;2.90;;;14.40;99.90;;;;;;5057397;28;20033;-71
2023/09/13 05:08:12;;;;;;;10.57;3.50;;;14.30;99.90;;;;;;5057472;28;20451;-74
2023/09/13 05:10:39;;;;;;;15.05;3.42;;;14.20;99.90;;;;;;5056677;28;20496;-73
2023/09/13 05:13:05;;;;;;;7.93;2.78;;;14.20;99.90;;;;;;5057496;28;20093;-73
2023/09/13 05:15:31;;;;;;;8.80;2.92;;;14.20;99.90;;;;;;5057586;28;20044;-75
2023/09/13 05:17:56;;;;;;;9.48;2.97;;;14.10;99.90;;;;;;5056730;28;20056;-74
2023/09/13 05:20:24;;;;;;;6.82;2.95;;;14.20;99.90;;;;;;5057514;28;20052;-71
2023/09/13 05:22:50;;;;;;;9.00;2.95;;;14.00;99.90;;;;;;5057069;28;20048;-72
2023/09/13 05:25:15;;;;;;;5.82;2.63;;;14.10;99.90;;;;;;5040939;28;20132;-74
2023/09/13 05:27:41;;;;;;;7.40;2.70;;;14.20;99.90;;;;;;5037462;28;20053;-70
2023/09/13 05:30:07;;;;;;;8.23;2.47;;;14.20;99.90;;;;;;5035313;28;20082;-73
2023/09/13 05:32:33;;;;;;;10.13;2.75;;;14.20;99.90;;;;;;5034444;28;20059;-73
2023/09/13 05:34:58;;;;;;;10.98;2.40;;;14.30;99.90;;;;;;5035103;28;20045;-72
2023/09/13 05:37:25;;;;;;;6.93;2.25;;;14.30;99.90;;;;;;5035675;28;20496;-75
2023/09/13 05:39:53;;;;;;;7.20;2.42;;;14.30;99.90;;;;;;5034126;28;20045;-76
2023/09/13 05:42:19;;;;;;;5.25;2.20;;;14.40;99.90;;;;;;5035419;28;20469;-75
2023/09/13 05:44:45;;;;;;;5.95;1.92;;;14.40;99.90;;;;;;5053995;28;20461;-76
2023/09/13 05:47:10;;;;;;;6.22;1.60;;;14.40;99.90;;;;;;5054285;28;20041;-81
2023/09/13 05:49:36;;;;;;;8.35;1.95;;;14.40;99.90;;;;;;5037068;28;20045;-74
2023/09/13 05:52:02;;;;;;;8.60;1.67;;;14.40;99.90;;;;;;5036804;28;20118;-74
2023/09/13 05:54:28;;;;;;;8.90;2.05;;;14.40;99.90;;;;;;5035096;28;20061;-75
2023/09/13 05:56:57;;;;;;;5.15;1.90;;;14.40;99.90;;;;;;5035988;28;20045;-74
2023/09/13 05:59:23;;;;;;;8.63;2.53;;;14.40;99.90;;;;;;5055080;28;20392;-75
2023/09/13 06:01:52;;;;;;;6.00;1.98;;;14.40;99.90;;;;;;5036124;28;20041;-75
2023/09/13 06:04:18;;;;;;;9.55;1.60;;;14.40;99.90;;;;;;5035302;28;20033;-75
2023/09/13 06:06:43;;;;;;;8.50;1.70;;;14.50;99.90;;;;;;5035144;28;20091;-75
2023/09/13 06:09:12;;;;;;;6.40;1.70;;;14.50;99.90;;;;;;5033984;28;20051;-75
2023/09/13 06:11:37;;;;;;;3.92;1.50;;;14.40;99.90;;;;;;5052988;28;20500;-75
2023/09/13 06:14:10;;;;;;;4.95;1.50;;;14.50;99.90;;;;;;5033913;28;20080;-75
2023/09/13 06:16:35;;;;;;;5.38;1.58;;;14.50;99.90;;;;;;5035626;28;20045;-74
2023/09/13 06:19:01;;;;;;;3.92;1.50;;;14.50;99.90;;;;;;5053679;28;20396;-75
2023/09/13 06:21:27;;;;;;;8.25;1.98;;;14.50;99.90;;;;;;5035825;28;20041;-75
2023/09/13 06:23:52;;;;;;;6.78;1.65;;;14.50;99.90;;;;;;5036159;28;20140;-74
2023/09/13 06:26:18;;;;;;;7.80;1.80;;;14.50;99.90;;;;;;5036565;28;20090;-74
2023/09/13 06:28:46;;;;;;;7.85;1.73;;;14.50;99.90;;;;;;5035575;28;20045;-75
2023/09/13 06:31:13;;;;;;;7.55;1.70;;;14.60;99.90;;;;;;5036503;28;20492;-74
2023/09/13 06:33:39;;;;;;;7.95;1.67;;;14.60;99.90;;;;;;5036386;28;20056;-74
2023/09/13 06:36:05;;;;;;;6.93;1.50;;;14.60;99.90;;;;;;5035522;28;20040;-74
2023/09/13 06:38:31;;;;;;;7.80;1.73;;;14.60;99.90;;;;;;5036334;28;20082;-74
2023/09/13 06:40:57;;;;;;;5.78;1.50;;;14.60;99.90;;;;;;5036061;28;20472;-74
2023/09/13 06:43:22;;;;;;;3.65;1.50;;;14.70;99.90;;;;;;5035755;28;20056;-74
2023/09/13 06:45:48;;;;;;;4.15;1.25;;;14.70;99.90;;;;;;5036153;28;20049;-74
2023/09/13 06:48:19;;;;;;;7.60;1.50;;;14.80;99.90;;;;;;5036276;28;20074;-74
2023/09/13 06:50:44;;;;;;;7.25;1.48;;;14.80;99.90;;;;;;5035285;28;20049;-75
2023/09/13 06:53:11;;;;;;;4.95;1.48;;;14.90;99.90;;;;;;5035456;28;20049;-74
2023/09/13 06:55:37;;;;;;;6.85;1.90;;;14.90;99.90;;;;;;5036381;28;20041;-75
2023/09/13 06:58:08;;;;;;;5.40;1.42;;;14.90;99.90;;;;;;5034822;28;20059;-75
2023/09/13 07:00:34;;;;;;;9.85;1.52;;;15.00;99.90;;;;;;5035862;28;20045;-73
2023/09/13 07:03:03;;;;;;;7.07;1.50;;;15.10;99.90;;;;;;5035524;28;20041;-74
2023/09/13 07:05:29;;;;;;;3.22;1.13;;;15.20;99.90;;;;;;5035870;28;20095;-74
2023/09/13 07:08:01;;;;;;;5.88;1.35;;;15.40;99.90;;;;;;5035387;28;20049;-74
2023/09/13 07:10:27;;;;;;;6.25;1.30;;;15.50;99.90;;;;;;5035087;28;20592;-74
2023/09/13 07:12:53;;;;;;;5.97;1.40;;;15.70;99.90;;;;;;5035090;28;20128;-76
2023/09/13 07:15:18;;;;;;;6.13;1.50;;;15.80;99.90;;;;;;5053614;28;20123;-75
2023/09/13 07:17:44;;;;;;;9.18;1.60;;;15.90;99.90;;;;;;5034798;28;20053;-75
2023/09/13 07:20:11;;;;;;;8.65;2.22;;;16.00;99.90;;;;;;5053052;28;20081;-74
2023/09/13 07:22:37;;;;;;;10.10;1.67;;;16.00;99.90;;;;;;5035313;28;20056;-75
2023/09/13 07:25:06;;;;;;;8.77;2.20;;;16.00;99.90;;;;;;5034470;28;20404;-74
2023/09/13 07:27:32;;;;;;;9.43;2.63;;;16.00;99.90;;;;;;5035288;28;20045;-76
2023/09/13 07:29:58;;;;;;;8.55;2.20;;;16.00;99.90;;;;;;5035112;28;20056;-76
2023/09/13 07:32:24;;;;;;;11.48;2.28;;;16.00;99.90;;;;;;5034782;28;20044;-76
2023/09/13 07:34:50;;;;;;;8.65;2.42;;;16.10;99.90;;;;;;5035166;28;20488;-76
2023/09/13 07:37:16;;;;;;;9.73;2.50;;;16.00;99.90;;;;;;5035601;28;20090;-76
2023/09/13 07:39:42;;;;;;;11.18;2.35;;;15.90;99.90;;;;;;5034219;28;20403;-76
2023/09/13 07:42:08;;;;;;;11.68;2.33;;;15.90;99.90;;;;;;5035039;28;20041;-75
2023/09/13 07:44:34;;;;;;;11.75;2.60;;;15.90;99.90;;;;;;5035257;28;20463;-74
2023/09/13 07:46:59;;;;;;;8.35;2.58;;;15.90;99.90;;;;;;5033966;28;20089;-75
2023/09/13 07:49:25;;;;;;;12.65;3.00;;;16.00;99.90;;;;;;5035263;28;20092;-75
2023/09/13 07:51:51;;;;;;;11.25;3.65;;;16.00;99.90;;;;;;5034570;28;20056;-75
2023/09/13 07:54:17;;;;;;;10.80;3.30;;;16.00;99.90;;;;;;5034094;28;20488;-76
2023/09/13 07:56:43;;;;;;;9.82;3.03;;;15.90;99.90;;;;;;5034965;28;20052;-76
2023/09/13 07:59:13;;;;;;;10.73;3.25;;;15.80;99.90;;;;;;5034894;28;20045;-76
2023/09/13 08:01:39;;;;;;;17.15;3.92;;;15.60;99.90;;;;;;5034496;28;20123;-77
2023/09/13 08:04:07;;;;;;;15.13;3.45;;;15.40;99.90;;;;;;5034348;28;20557;-77
2023/09/13 08:06:33;;;;;;;9.88;3.60;;;15.30;99.90;;;;;;5033855;28;20076;-77
2023/09/13 08:09:02;;;;;;;13.65;3.70;;;15.20;99.90;;;;;;5047414;28;20080;-76
2023/09/13 08:11:28;;;;;;;7.78;3.35;;;15.20;99.90;;;;;;5050828;28;20041;-77
2023/09/13 08:13:53;;;;;;;12.88;4.13;;;15.10;99.90;;;;;;5050922;28;20040;-76
2023/09/13 08:16:19;;;;;;;12.38;3.85;;;15.10;99.90;;;;;;5051100;28;20387;-76
2023/09/13 08:18:45;;;;;;;10.13;3.40;;;15.00;99.90;;;;;;5036058;28;20037;-76
2023/09/13 08:21:13;;;;;;;10.77;3.80;;;15.00;99.90;;;;;;5050227;28;20045;-77
2023/09/13 08:23:39;;;;;;;8.95;3.00;;;15.10;99.90;;;;;;5039869;28;20051;-77
2023/09/13 08:26:05;;;;;;;8.77;2.90;;;15.10;99.90;;;;;;5053912;28;20041;-76
2023/09/13 08:28:30;;;;;;;6.97;3.33;;;15.20;99.90;;;;;;5054002;28;20511;-76
2023/09/13 08:30:56;;;;;;;7.43;3.00;;;15.30;99.90;;;;;;5054246;28;20494;-77
2023/09/13 08:33:22;;;;;;;9.00;3.35;;;15.40;99.90;;;;;;5072206;28;20041;-77
2023/09/13 08:35:47;;;;;;;9.02;3.28;;;15.40;99.90;;;;;;5075475;28;20434;-77
2023/09/13 08:38:13;;;;;;;7.35;3.00;;;15.50;99.90;;;;;;5076480;28;20088;-77
2023/09/13 08:40:43;;;;;;;8.73;3.15;;;15.50;99.90;;;;;;5058394;28;20055;-77
2023/09/13 08:43:11;;;;;;;7.55;2.60;;;15.60;99.90;;;;;;5053918;28;20037;-76
2023/09/13 08:45:41;;;;;;;6.65;2.60;;;15.70;99.90;;;;;;5038238;28;20045;-76
2023/09/13 08:48:20;;;;;;;7.47;2.55;;;15.80;99.90;;;;;;5038055;28;20089;-77
2023/09/13 08:50:48;;;;;;;6.95;2.65;;;15.90;99.90;;;;;;5037459;28;20087;-77
2023/09/13 08:53:16;;;;;;;6.18;2.05;;;15.80;99.90;;;;;;5038029;28;20377;-78
2023/09/13 08:55:44;;;;;;;6.13;2.05;;;15.90;99.90;;;;;;5037761;28;20049;-77
2023/09/13 08:58:10;;;;;;;5.55;2.05;;;16.00;99.90;;;;;;5037638;28;20059;-77
2023/09/13 09:00:39;;;;;;;4.82;2.28;;;16.00;99.90;;;;;;5038277;28;20446;-77
2023/09/13 09:03:07;;;;;;;5.90;2.05;;;16.10;99.90;;;;;;5055061;28;20049;-77
2023/09/13 09:05:35;;;;;;;5.53;2.03;;;16.10;99.90;;;;;;5056005;28;20041;-77
2023/09/13 09:08:03;;;;;;;8.20;2.15;;;16.20;99.90;;;;;;5037496;28;20048;-77
2023/09/13 09:10:29;;;;;;;3.60;1.58;;;16.40;99.90;;;;;;5037174;28;20055;-78
2023/09/13 09:12:57;;;;;;;6.72;1.92;;;16.90;99.90;;;;;;5055483;28;20102;-77
2023/09/13 09:15:24;;;;;;;5.30;1.83;;;18.40;99.90;;;;;;5037806;28;20056;-78
2023/09/13 09:17:52;;;;;;;5.55;2.08;;;20.20;99.90;;;;;;5054994;28;20049;-78
2023/09/13 09:20:19;;;;;;;5.88;2.08;;;21.70;99.90;;;;;;5051716;28;20048;-78
2023/09/13 09:22:45;;;;;;;4.07;2.22;;;23.00;99.90;;;;;;5057694;28;20150;-78
2023/09/13 09:25:12;;;;;;;5.75;2.65;;;23.90;99.90;;;;;;5074640;28;20135;-78
2023/09/13 09:27:41;;;;;;;6.05;2.55;;;24.50;99.90;;;;;;5057380;28;20056;-78
2023/09/13 09:30:14;;;;;;;4.82;2.33;;;25.20;98.90;;;;;;5057300;28;20182;-78
2023/09/13 09:32:41;;;;;;;3.85;2.20;;;25.40;96.90;;;;;;5056684;28;20083;-78
2023/09/13 09:35:07;;;;;;;3.90;2.20;;;25.80;96.50;;;;;;5057274;28;20786;-78
2023/09/13 09:37:35;;;;;;;6.03;2.15;;;26.00;95.20;;;;;;5057321;28;20391;-78
2023/09/13 09:40:09;;;;;;;5.20;3.03;;;26.40;96.00;;;;;;5073999;28;20380;-78
2023/09/13 09:42:37;;;;;;;8.00;3.45;;;26.60;94.90;;;;;;5057571;28;20060;-78
2023/09/13 09:45:03;;;;;;;7.88;4.18;;;26.60;93.50;;;;;;5055938;28;20048;-79
2023/09/13 09:47:29;;;;;;;7.43;3.72;;;26.80;92.50;;;;;;5056617;28;20037;-77
2023/09/13 09:49:54;;;;;;;6.90;4.22;;;26.80;92.70;;;;;;5056406;28;20041;-78
2023/09/13 09:52:20;;;;;;;7.13;3.97;;;27.10;92.80;;;;;;5056531;28;20413;-79
2023/09/13 09:54:48;;;;;;;6.55;3.67;;;27.30;92.70;;;;;;5053517;28;20048;-76
2023/09/13 09:57:20;;;;;;;6.40;3.60;;;27.40;92.30;;;;;;5056710;28;20040;-76
2023/09/13 09:59:46;;;;;;;7.70;3.58;;;27.50;91.90;;;;;;5056329;28;20463;-78
2023/09/13 10:02:12;;;;;;;5.47;2.22;;;27.80;92.80;;;;;;5074209;28;20072;-78
2023/09/13 10:04:45;;;;;;;5.35;2.30;;;27.40;91.20;;;;;;5054036;28;20535;-78
2023/09/13 10:07:11;;;;;;;4.82;2.05;;;26.20;90.10;;;;;;5045720;28;20040;-78
2023/09/13 10:09:41;;;;;;;4.35;2.00;;;25.80;91.40;;;;;;5052987;28;20043;-79
2023/09/13 10:12:09;;;;;;;5.57;2.25;;;26.30;93.20;;;;;;5055371;28;20135;-78
2023/09/13 10:14:39;;;;;;;7.35;2.40;;;26.30;92.40;;;;;;5055513;28;20105;-79
2023/09/13 10:17:05;;;;;;;7.18;2.72;;;26.20;92.80;;;;;;5052970;28;20037;-78
2023/09/13 10:19:32;;;;;;;7.40;2.53;;;26.30;92.90;;;;;;5038537;28;20052;-78
2023/09/13 10:21:58;;;;;;;6.68;2.45;;;26.50;92.50;;;;;;5055727;28;20052;-79
2023/09/13 10:24:28;;;;;;;7.18;2.22;;;26.20;92.30;;;;;;5057318;28;20054;-78
2023/09/13 10:26:55;;;;;;;6.85;2.55;;;26.00;92.00;;;;;;5056233;28;20045;-78
2023/09/13 10:29:35;;;;;;;7.55;2.05;;;26.40;93.00;;;;;;5055762;28;20120;-78
2023/09/13 10:32:06;;;;;;;6.32;2.05;;;26.50;92.10;;;;;;5052821;28;20052;-78
2023/09/13 10:34:35;;;;;;;6.60;2.22;;;26.40;92.20;;;;;;5035641;28;20102;-78
2023/09/13 10:37:08;;;;;;;7.05;2.35;;;26.90;92.60;;;;;;5036151;28;20037;-78
2023/09/13 10:39:41;;;;;;;6.95;2.15;;;27.40;92.60;;;;;;5036316;28;20134;-78
2023/09/13 10:42:07;;;;;;;7.18;2.38;;;27.40;92.30;;;;;;5051942;28;20519;-78
2023/09/13 10:44:37;;;;;;;6.15;2.20;;;26.90;92.00;;;;;;5037017;28;20056;-78
2023/09/13 10:47:07;;;;;;;5.35;2.00;;;27.20;92.50;;;;;;5035872;28;20045;-78
2023/09/13 10:49:44;;;;;;;9.25;2.10;;;27.80;91.90;;;;;;5035784;28;20048;-78
2023/09/13 10:52:10;;;;;;;5.63;2.08;;;27.50;92.20;;;;;;5035643;28;20044;-78
2023/09/13 10:54:38;;;;;;;5.40;2.30;;;26.80;92.60;;;;;;5036281;28;20049;-77
2023/09/13 10:57:05;;;;;;;7.38;1.80;;;26.70;92.30;;;;;;5051903;28;20049;-77
2023/09/13 10:59:31;;;;;;;6.85;2.00;;;26.00;91.80;;;;;;5036012;28;20079;-78
2023/09/13 11:01:57;;;;;;;5.03;1.80;;;26.20;92.90;;;;;;5036326;28;20049;-78
2023/09/13 11:04:24;;;;;;;6.07;2.00;;;26.90;92.80;;;;;;5035086;28;20560;-78
2023/09/13 11:06:53;;;;;;;5.05;1.60;;;27.50;92.30;;;;;;5035528;28;20076;-78
2023/09/13 11:09:31;;;;;;;4.25;1.60;;;27.70;91.80;;;;;;5063641;28;20055;-79
2023/09/13 11:12:02;;;;;;;5.90;2.00;;;28.20;91.30;;;;;;5055093;28;20044;-78
2023/09/13 11:14:31;;;;;;;5.00;1.50;;;28.70;91.60;;;;;;5055848;28;20131;-77
2023/09/13 11:17:39;;;;;;;7.75;1.77;;;28.40;91.10;;;;;;5053318;28;20492;-73
2023/09/13 11:20:24;;;;;;;5.50;1.67;;;28.40;92.00;;;;;;5055749;28;20044;-73
2023/09/13 11:23:08;;;;;;;5.05;1.63;;;28.00;90.60;;;;;;5055155;28;20060;-72
2023/09/13 11:25:38;;;;;;;5.10;1.58;;;27.50;92.90;;;;;;5072557;28;20080;-72
2023/09/13 11:28:26;;;;;;;4.78;1.48;;;27.20;90.70;;;;;;5055326;28;20048;-72
2023/09/13 11:30:53;;;;;;;6.50;1.70;;;26.70;91.60;;;;;;5072394;28;20072;-72
2023/09/13 11:33:19;;;;;;;4.93;1.38;;;25.70;91.20;;;;;;5051617;28;20045;-72
2023/09/13 11:35:45;;;;;;;4.32;1.55;;;26.10;92.90;;;;;;5035445;28;20498;-72
2023/09/13 11:38:12;;;;;;;6.15;1.70;;;25.80;92.40;;;;;;5034172;28;20138;-72
2023/09/13 11:40:46;;;;;;;6.20;1.50;;;25.20;93.10;;;;;;5035499;28;20068;-72
2023/09/13 11:43:12;;;;;;;5.63;1.92;;;24.60;93.20;;;;;;5035160;28;20114;-72
2023/09/13 11:45:40;;;;;;;4.10;1.70;;;23.90;94.00;;;;;;5052588;28;20049;-72
2023/09/13 11:48:07;;;;;;;5.07;1.40;;;23.30;95.10;;;;;;5037256;28;20041;-71
2023/09/13 11:50:43;;;;;;;5.30;1.80;;;22.90;95.70;;;;;;5056417;28;20043;-72
2023/09/13 11:53:15;;;;;;;5.95;1.70;;;22.50;96.90;;;;;;5053906;28;20048;-72
2023/09/13 11:55:49;;;;;;;6.30;1.50;;;22.30;96.60;;;;;;5054745;28;20036;-72
2023/09/13 11:58:18;;;;;;;5.07;1.52;;;23.30;97.70;;;;;;5054464;28;20048;-72
2023/09/13 12:00:44;;;;;;;5.35;1.67;;;24.90;96.70;;;;;;5054009;28;20059;-71
2023/09/13 12:03:10;;;;;;;4.32;1.60;;;26.10;95.20;;;;;;5054485;28;20396;-72
2023/09/13 12:05:38;;;;;;;5.43;1.70;;;26.10;93.70;;;;;;5054163;28;20090;-74
2023/09/13 12:08:20;;;;;;;7.32;1.50;;;25.40;93.80;;;;;;5053696;28;20048;-72
2023/09/13 12:10:47;;;;;;;7.18;1.63;;;25.10;94.50;;;;;;5054413;28;20040;-72
2023/09/13 12:13:13;;;;;;;4.32;1.50;;;25.50;94.40;;;;;;5071963;28;20499;-71
2023/09/13 12:15:57;;;;;;;7.15;1.92;;;24.50;94.30;;;;;;5072518;28;20032;-70
2023/09/13 12:18:23;;;;;;;6.68;1.80;;;23.60;95.20;;;;;;5050949;28;20045;-71
2023/09/13 12:20:49;;;;;;;6.32;1.65;;;22.50;97.40;;;;;;5033084;28;20403;-73
2023/09/13 12:23:16;;;;;;;6.10;1.73;;;21.50;99.80;;;;;;5034628;28;20041;-76
2023/09/13 12:25:42;;;;;;;7.63;1.48;;;20.80;99.90;;;;;;5038288;28;20190;-75
2023/09/13 12:28:08;;;;;;;6.05;1.60;;;20.20;99.90;;;;;;5070922;28;20037;-75
2023/09/13 12:30:37;;;;;;;6.03;1.55;;;19.70;99.90;;;;;;5034561;28;20040;-75
2023/09/13 12:33:04;;;;;;;5.30;1.50;;;19.40;99.90;;;;;;5059147;28;20087;-76
2023/09/13 12:35:31;;;;;;;4.68;1.77;;;19.10;99.90;;;;;;5053578;28;20053;-76
2023/09/13 12:38:00;;;;;;;3.42;1.50;;;19.00;99.90;;;;;;5053638;28;20048;-76
2023/09/13 12:40:27;;;;;;;7.30;1.40;;;18.90;99.90;;;;;;5053761;28;20044;-77
2023/09/13 12:42:56;;;;;;;6.03;1.50;;;18.80;99.90;;;;;;5053099;28;20055;-73
2023/09/13 12:45:21;;;;;;;4.82;1.30;;;18.70;99.90;;;;;;5054233;28;20384;-74
2023/09/13 12:47:49;;;;;;;5.20;1.50;;;18.80;99.90;;;;;;5049800;28;20063;-74